createdAt,value
2022-10-05T00:01:52.816Z,9.63
2022-10-05T00:04:23.778Z,9.63
2022-10-05T00:07:13.321Z,9.71
2022-10-05T00:09:40.182Z,9.65
2022-10-05T00:12:20.188Z,9.57
2022-10-05T00:14:48.324Z,9.62
2022-10-05T00:17:23.754Z,9.66
2022-10-05T00:19:53.932Z,9.64
2022-10-05T00:22:23.186Z,9.63
2022-10-05T00:24:58.206Z,9.60
2022-10-05T00:27:27.755Z,9.59
2022-10-05T00:29:58.236Z,9.61
2022-10-05T00:32:24.766Z,9.54
2022-10-05T00:34:51.474Z,9.66
2022-10-05T00:37:18.247Z,9.67
2022-10-05T00:39:45.261Z,9.67
2022-10-05T00:42:38.976Z,9.70
2022-10-05T00:45:13.224Z,9.72
2022-10-05T00:48:17.778Z,9.68
2022-10-05T00:50:49.145Z,9.63
2022-10-05T00:53:49.311Z,9.55
2022-10-05T00:56:32.908Z,9.52
2022-10-05T00:59:24.313Z,9.41
2022-10-05T01:02:01.558Z,9.36
2022-10-05T01:04:45.595Z,9.37
2022-10-05T01:07:27.030Z,9.28
2022-10-05T01:09:59.874Z,9.30
2022-10-05T01:12:35.531Z,9.16
2022-10-05T01:15:25.608Z,9.12
2022-10-05T01:18:07.584Z,9.11
2022-10-05T01:20:49.466Z,9.08
2022-10-05T01:23:37.403Z,9.04
2022-10-05T01:26:08.742Z,8.98
2022-10-05T01:28:38.572Z,8.94
2022-10-05T01:31:09.424Z,8.90
2022-10-05T01:33:59.268Z,8.94
2022-10-05T01:36:33.911Z,8.99
2022-10-05T01:39:25.726Z,8.99
2022-10-05T01:42:17.735Z,8.95
2022-10-05T01:45:01.363Z,8.91
2022-10-05T01:47:38.685Z,8.91
2022-10-05T01:50:22.161Z,8.84
2022-10-05T01:53:19.266Z,8.71
2022-10-05T01:55:59.686Z,8.63
2022-10-05T01:58:54.918Z,8.59
2022-10-05T02:01:27.140Z,8.57
2022-10-05T02:04:03.319Z,8.53
2022-10-05T02:06:38.875Z,8.48
2022-10-05T02:09:22.488Z,8.44
2022-10-05T02:11:52.715Z,8.35
2022-10-05T02:14:49.522Z,8.39
2022-10-05T02:17:20.379Z,8.43
2022-10-05T02:19:50.684Z,8.28
2022-10-05T02:22:25.547Z,8.29
2022-10-05T02:24:56.966Z,8.24
2022-10-05T02:27:48.661Z,8.19
2022-10-05T02:30:16.967Z,8.28
2022-10-05T02:32:54.832Z,8.22
2022-10-05T02:35:22.035Z,8.16
2022-10-05T02:38:06.641Z,8.12
2022-10-05T02:41:09.262Z,8.08
2022-10-05T02:43:46.949Z,8.05
2022-10-05T02:46:20.433Z,8.00
2022-10-05T02:49:02.281Z,7.97
2022-10-05T02:51:54.314Z,8.04
2022-10-05T02:54:42.664Z,8.05
2022-10-05T02:57:22.651Z,8.00
2022-10-05T03:00:01.963Z,7.91
2022-10-05T03:02:57.512Z,7.89
2022-10-05T03:05:28.237Z,7.86
2022-10-05T03:07:59.071Z,7.81
2022-10-05T03:10:30.041Z,7.74
2022-10-05T03:13:24.373Z,7.71
2022-10-05T03:16:11.273Z,7.69
2022-10-05T03:18:41.353Z,7.63
2022-10-05T03:21:37.208Z,7.57
2022-10-05T03:24:36.771Z,7.53
2022-10-05T03:27:27.194Z,7.69
2022-10-05T03:29:59.635Z,7.68
2022-10-05T03:32:57.075Z,7.82
2022-10-05T03:35:30.976Z,7.85
2022-10-05T03:38:08.805Z,7.79
2022-10-05T03:40:57.201Z,7.74
2022-10-05T03:43:34.899Z,7.74
2022-10-05T03:46:25.643Z,7.74
2022-10-05T03:48:58.206Z,7.72
2022-10-05T03:51:31.554Z,7.74
2022-10-05T03:54:05.277Z,7.76
2022-10-05T03:56:33.105Z,7.69
2022-10-05T03:59:05.844Z,7.66
2022-10-05T04:01:57.213Z,7.63
2022-10-05T04:04:41.142Z,7.60
2022-10-05T04:07:13.154Z,7.56
2022-10-05T04:09:43.306Z,7.54
2022-10-05T04:12:27.440Z,7.51
2022-10-05T04:15:00.823Z,7.51
2022-10-05T04:17:40.643Z,7.47
2022-10-05T04:20:16.737Z,7.39
2022-10-05T04:23:06.953Z,7.39
2022-10-05T04:25:47.949Z,7.35
2022-10-05T04:28:27.057Z,7.34
2022-10-05T04:30:56.077Z,7.30
2022-10-05T04:33:22.756Z,7.30
2022-10-05T04:36:08.871Z,7.26
2022-10-05T04:38:47.440Z,7.27
2022-10-05T04:41:35.188Z,7.23
2022-10-05T04:44:07.563Z,7.23
2022-10-05T04:46:39.089Z,7.26
2022-10-05T04:49:32.983Z,7.27
2022-10-05T04:52:24.331Z,7.24
2022-10-05T04:55:14.512Z,7.22
2022-10-05T04:58:00.192Z,7.23
2022-10-05T05:00:49.795Z,7.26
2022-10-05T05:03:31.711Z,7.23
2022-10-05T05:06:16.762Z,7.28
2022-10-05T05:09:21.747Z,7.27
2022-10-05T05:12:03.751Z,7.27
2022-10-05T05:14:53.594Z,7.30
2022-10-05T05:17:46.945Z,7.34
2022-10-05T05:20:23.636Z,7.36
2022-10-05T05:22:55.119Z,7.58
2022-10-05T05:25:39.998Z,7.50
2022-10-05T05:28:16.604Z,7.56
2022-10-05T05:30:45.147Z,7.56
2022-10-05T05:33:22.089Z,7.53
2022-10-05T05:36:13.968Z,7.55
2022-10-05T05:38:57.851Z,7.75
2022-10-05T05:41:31.398Z,7.82
2022-10-05T05:44:20.730Z,7.82
2022-10-05T05:47:05.155Z,7.91
2022-10-05T05:49:53.571Z,7.90
2022-10-05T05:52:24.160Z,8.06
2022-10-05T05:55:16.429Z,8.23
2022-10-05T05:58:07.391Z,8.24
2022-10-05T06:01:04.394Z,8.33
2022-10-05T06:03:38.244Z,8.51
2022-10-05T06:06:09.514Z,8.96
2022-10-05T06:08:50.214Z,9.25
2022-10-05T06:11:20.813Z,9.30
2022-10-05T06:13:47.924Z,9.28
2022-10-05T06:16:35.801Z,9.58
2022-10-05T06:19:11.583Z,9.83
2022-10-05T06:21:59.371Z,9.89
2022-10-05T06:24:34.527Z,10.40
2022-10-05T06:27:16.395Z,10.86
2022-10-05T06:30:01.047Z,11.39
2022-10-05T06:32:31.669Z,12.19
2022-10-05T06:35:10.195Z,12.27
2022-10-05T06:37:55.854Z,12.78
2022-10-05T06:40:30.314Z,14.62
2022-10-05T06:43:36.569Z,15.47
2022-10-05T06:46:30.760Z,15.84
2022-10-05T06:49:07.435Z,15.91
2022-10-05T06:51:59.429Z,16.20
2022-10-05T06:54:46.048Z,17.29
2022-10-05T06:57:31.066Z,17.19
2022-10-05T07:00:07.651Z,18.90
2022-10-05T07:02:56.282Z,18.76
2022-10-05T07:05:39.837Z,19.85
2022-10-05T07:08:12.398Z,20.60
2022-10-05T07:10:52.646Z,20.29
2022-10-05T07:13:47.383Z,20.64
2022-10-05T07:16:30.178Z,20.94
2022-10-05T07:19:11.649Z,20.53
2022-10-05T07:21:54.485Z,21.49
2022-10-05T07:24:30.328Z,21.86
2022-10-05T07:27:13.366Z,21.10
2022-10-05T07:29:59.074Z,19.29
2022-10-05T07:32:46.138Z,20.69
2022-10-05T07:35:41.261Z,21.46
2022-10-05T07:38:14.071Z,21.80
2022-10-05T07:40:56.405Z,22.67
2022-10-05T07:44:00.475Z,22.50
2022-10-05T07:46:42.814Z,22.69
2022-10-05T07:49:25.454Z,21.54
2022-10-05T07:52:21.473Z,21.52
2022-10-05T07:54:59.072Z,20.33
2022-10-05T07:57:39.501Z,20.72
2022-10-05T08:00:43.476Z,21.34
2022-10-05T08:03:15.962Z,21.88
2022-10-05T08:05:43.916Z,22.30
2022-10-05T08:08:10.999Z,22.62
2022-10-05T08:10:47.439Z,22.06
2022-10-05T08:13:20.957Z,22.17
2022-10-05T08:15:51.939Z,20.29
2022-10-05T08:18:46.578Z,20.79
2022-10-05T08:21:16.175Z,20.63
2022-10-05T08:23:51.029Z,21.18
2022-10-05T08:26:22.807Z,21.53
2022-10-05T08:29:21.729Z,21.89
2022-10-05T08:31:58.062Z,21.97
2022-10-05T08:34:42.161Z,21.93
2022-10-05T08:37:13.905Z,22.49
2022-10-05T08:39:48.110Z,21.78
2022-10-05T08:42:48.692Z,21.10
2022-10-05T08:45:44.297Z,20.58
2022-10-05T08:48:51.988Z,20.16
2022-10-05T08:51:18.613Z,20.27
2022-10-05T08:54:22.842Z,19.75
2022-10-05T08:56:58.530Z,19.71
2022-10-05T08:59:54.180Z,20.64
2022-10-05T09:02:32.233Z,20.85
2022-10-05T09:05:20.956Z,20.79
2022-10-05T09:08:22.234Z,21.60
2022-10-05T09:11:03.628Z,21.92
2022-10-05T09:13:39.115Z,23.48
2022-10-05T09:16:08.803Z,24.46
2022-10-05T09:18:53.363Z,23.18
2022-10-05T09:21:42.703Z,24.11
2022-10-05T09:24:12.419Z,24.36
2022-10-05T09:26:53.526Z,24.40
2022-10-05T09:29:38.517Z,23.99
2022-10-05T09:32:25.107Z,24.17
2022-10-05T09:35:31.964Z,23.62
2022-10-05T09:38:24.957Z,24.90
2022-10-05T09:41:28.358Z,24.55
2022-10-05T09:44:16.187Z,24.72
2022-10-05T09:46:58.127Z,24.52
2022-10-05T09:49:36.962Z,24.91
2022-10-05T09:52:34.961Z,24.67
2022-10-05T09:55:19.991Z,24.70
2022-10-05T09:57:55.698Z,24.67
2022-10-05T10:00:33.215Z,24.36
2022-10-05T10:03:39.299Z,25.45
2022-10-05T10:06:17.201Z,25.11
2022-10-05T10:09:06.430Z,24.71
2022-10-05T10:11:55.012Z,24.20
2022-10-05T10:14:36.153Z,25.67
2022-10-05T10:17:18.115Z,26.17
2022-10-05T10:20:05.912Z,26.89
2022-10-05T10:22:57.442Z,25.14
2022-10-05T10:25:44.594Z,24.09
2022-10-05T10:28:33.174Z,23.65
2022-10-05T10:31:26.129Z,23.09
2022-10-05T10:34:21.466Z,23.31
2022-10-05T10:37:11.082Z,23.78
2022-10-05T10:40:27.016Z,25.49
2022-10-05T10:43:18.531Z,25.65
2022-10-05T10:46:08.515Z,26.58
2022-10-05T10:48:45.975Z,27.70
2022-10-05T10:51:36.153Z,27.53
2022-10-05T10:54:12.601Z,27.69
2022-10-05T10:56:55.324Z,27.21
2022-10-05T10:59:50.070Z,26.47
2022-10-05T11:02:37.982Z,25.07
2022-10-05T11:05:19.952Z,24.75
2022-10-05T11:08:05.011Z,24.51
2022-10-05T11:10:56.598Z,24.36
2022-10-05T11:13:33.366Z,24.28
2022-10-05T11:16:30.926Z,24.74
2022-10-05T11:19:05.070Z,24.30
2022-10-05T11:21:39.094Z,24.96
2022-10-05T11:25:03.023Z,24.42
2022-10-05T11:27:54.056Z,24.95
2022-10-05T11:31:02.573Z,26.09
2022-10-05T11:33:44.039Z,25.19
2022-10-05T11:36:25.905Z,24.79
2022-10-05T11:39:41.167Z,25.61
2022-10-05T11:42:14.049Z,26.09
2022-10-05T11:44:59.607Z,25.18
2022-10-05T11:47:26.010Z,24.66
2022-10-05T11:50:20.665Z,24.26
2022-10-05T11:52:53.674Z,23.55
2022-10-05T11:55:42.758Z,23.33
2022-10-05T11:58:28.798Z,23.27
2022-10-05T12:00:58.235Z,23.10
2022-10-05T12:03:37.561Z,22.97
2022-10-05T12:06:30.662Z,23.73
2022-10-05T12:09:10.928Z,24.23
2022-10-05T12:11:59.853Z,23.66
2022-10-05T12:14:49.323Z,24.68
2022-10-05T12:17:27.923Z,25.49
2022-10-05T12:19:58.627Z,25.74
2022-10-05T12:22:43.827Z,25.14
2022-10-05T12:25:26.132Z,24.39
2022-10-05T12:27:54.940Z,23.76
2022-10-05T12:30:55.826Z,23.56
2022-10-05T12:34:03.312Z,23.47
2022-10-05T12:36:59.556Z,23.18
2022-10-05T12:39:39.421Z,23.09
2022-10-05T12:42:26.386Z,22.81
2022-10-05T12:45:21.960Z,22.64
2022-10-05T12:48:18.901Z,22.07
2022-10-05T12:51:09.493Z,22.33
2022-10-05T12:54:18.019Z,22.23
2022-10-05T12:57:24.219Z,22.41
2022-10-05T12:59:55.390Z,22.50
2022-10-05T13:02:24.895Z,22.16
2022-10-05T13:05:00.093Z,22.06
2022-10-05T13:07:48.432Z,22.09
2022-10-05T13:10:42.054Z,21.98
2022-10-05T13:13:22.184Z,21.71
2022-10-05T13:15:51.722Z,21.73
2022-10-05T13:18:56.013Z,21.85
2022-10-05T13:21:41.403Z,21.68
2022-10-05T13:24:27.011Z,21.82
2022-10-05T13:26:58.236Z,21.99
2022-10-05T13:29:49.899Z,21.93
2022-10-05T13:32:23.180Z,21.37
2022-10-05T13:35:17.246Z,21.96
2022-10-05T13:38:08.810Z,22.37
2022-10-05T13:40:47.479Z,22.43
2022-10-05T13:43:28.299Z,22.95
2022-10-05T13:46:07.323Z,23.40
2022-10-05T13:49:01.291Z,23.60
2022-10-05T13:51:30.434Z,23.51
2022-10-05T13:54:08.953Z,23.88
2022-10-05T13:56:43.251Z,24.05
2022-10-05T13:59:32.492Z,24.09
2022-10-05T14:02:09.020Z,23.39
2022-10-05T14:04:57.622Z,23.98
2022-10-05T14:07:34.919Z,23.48
2022-10-05T14:10:03.775Z,24.09
2022-10-05T14:12:38.550Z,24.49
2022-10-05T14:15:19.936Z,24.61
2022-10-05T14:17:46.579Z,24.37
2022-10-05T14:20:34.208Z,24.77
2022-10-05T14:23:27.145Z,24.29
2022-10-05T14:25:54.401Z,24.44
2022-10-05T14:28:39.124Z,24.93
2022-10-05T14:31:27.880Z,24.92
2022-10-05T14:33:54.337Z,24.71
2022-10-05T14:36:36.347Z,25.17
2022-10-05T14:39:05.139Z,25.47
2022-10-05T14:41:37.266Z,25.27
2022-10-05T14:44:12.781Z,25.12
2022-10-05T14:46:49.888Z,24.35
2022-10-05T14:49:37.235Z,24.67
2022-10-05T14:52:32.477Z,24.31
2022-10-05T14:55:08.025Z,24.20
2022-10-05T14:57:41.688Z,24.35
2022-10-05T15:00:08.185Z,24.11
2022-10-05T15:02:48.024Z,24.22
2022-10-05T15:05:38.751Z,23.98
2022-10-05T15:08:35.940Z,23.98
2022-10-05T15:11:09.704Z,23.54
2022-10-05T15:13:39.015Z,23.00
2022-10-05T15:16:09.260Z,22.72
2022-10-05T15:19:00.218Z,22.65
2022-10-05T15:21:48.629Z,22.46
2022-10-05T15:24:21.625Z,21.97
2022-10-05T15:26:53.783Z,21.72
2022-10-05T15:29:52.166Z,21.58
2022-10-05T15:32:47.959Z,21.39
2022-10-05T15:35:45.987Z,21.20
2022-10-05T15:39:00.367Z,21.08
2022-10-05T15:41:40.882Z,20.96
2022-10-05T15:44:31.046Z,20.67
2022-10-05T15:47:08.817Z,20.55
2022-10-05T15:50:07.658Z,20.16
2022-10-05T15:52:41.230Z,19.74
2022-10-05T15:55:28.740Z,19.82
2022-10-05T15:58:13.968Z,19.41
2022-10-05T16:00:47.948Z,19.54
2022-10-05T16:03:45.148Z,19.52
2022-10-05T16:07:01.633Z,19.35
2022-10-05T16:09:53.288Z,19.23
2022-10-05T16:12:37.398Z,19.07
2022-10-05T16:15:28.405Z,18.88
2022-10-05T16:18:18.490Z,18.64
2022-10-05T16:21:15.019Z,18.59
2022-10-05T16:23:44.560Z,18.43
2022-10-05T16:26:20.253Z,18.34
2022-10-05T16:29:04.609Z,18.22
2022-10-05T16:31:55.972Z,18.09
2022-10-05T16:34:44.915Z,17.87
2022-10-05T16:37:18.368Z,17.71
2022-10-05T16:39:59.078Z,17.66
2022-10-05T16:43:04.426Z,17.44
2022-10-05T16:46:03.304Z,17.27
2022-10-05T16:48:37.179Z,17.24
2022-10-05T16:51:17.019Z,17.19
2022-10-05T16:53:49.528Z,17.09
2022-10-05T16:56:18.652Z,17.02
2022-10-05T16:59:12.520Z,16.88
2022-10-05T17:02:17.001Z,16.82
2022-10-05T17:05:00.818Z,16.60
2022-10-05T17:07:58.654Z,16.46
2022-10-05T17:10:37.872Z,16.39
2022-10-05T17:13:35.138Z,16.29
2022-10-05T17:16:12.709Z,16.15
2022-10-05T17:18:39.165Z,16.15
2022-10-05T17:21:12.406Z,16.16
2022-10-05T17:23:45.073Z,16.08
2022-10-05T17:26:30.597Z,16.25
2022-10-05T17:29:16.292Z,16.35
2022-10-05T17:32:18.649Z,16.31
2022-10-05T17:35:22.194Z,16.32
2022-10-05T17:38:22.619Z,16.23
2022-10-05T17:41:11.504Z,16.23
2022-10-05T17:43:38.457Z,16.23
2022-10-05T17:46:08.151Z,16.14
2022-10-05T17:48:45.087Z,16.11
2022-10-05T17:51:56.185Z,16.14
2022-10-05T17:54:48.263Z,16.06
2022-10-05T17:57:27.001Z,16.06
2022-10-05T17:59:53.658Z,16.02
2022-10-05T18:02:22.619Z,15.97
2022-10-05T18:05:04.662Z,15.96
2022-10-05T18:07:38.001Z,15.94
2022-10-05T18:13:50.251Z,15.93
2022-10-05T18:16:54.673Z,15.89
2022-10-05T18:19:21.971Z,15.81
2022-10-05T18:22:18.130Z,15.62
2022-10-05T18:24:55.723Z,15.51
2022-10-05T18:27:38.242Z,15.37
2022-10-05T18:30:19.687Z,15.21
2022-10-05T18:32:55.404Z,15.14
2022-10-05T18:35:39.978Z,15.16
2022-10-05T18:38:25.442Z,15.42
2022-10-05T18:41:02.269Z,15.36
2022-10-05T18:43:37.690Z,15.41
2022-10-05T18:46:31.926Z,15.58
2022-10-05T18:49:14.486Z,15.39
2022-10-05T18:51:54.165Z,15.26
2022-10-05T18:54:57.628Z,15.14
2022-10-05T18:57:40.356Z,14.98
2022-10-05T19:00:15.995Z,14.98
2022-10-05T19:02:48.460Z,14.92
2022-10-05T19:05:46.357Z,14.90
2022-10-05T19:08:13.747Z,14.86
2022-10-05T19:11:19.456Z,14.85
2022-10-05T19:14:09.797Z,14.66
2022-10-05T19:16:54.789Z,14.80
2022-10-05T19:19:33.626Z,14.85
2022-10-05T19:22:36.178Z,14.81
2022-10-05T19:25:16.315Z,14.63
2022-10-05T19:28:13.318Z,14.68
2022-10-05T19:30:49.733Z,14.73
2022-10-05T19:33:20.288Z,14.84
2022-10-05T19:36:18.146Z,14.90
2022-10-05T19:39:12.418Z,15.00
2022-10-05T19:41:57.756Z,15.20
2022-10-05T19:44:56.744Z,15.16
2022-10-05T19:47:47.381Z,15.15
2022-10-05T19:50:21.400Z,15.04
2022-10-05T19:52:51.010Z,14.95
2022-10-05T19:55:20.498Z,14.82
2022-10-05T19:57:47.943Z,14.65
2022-10-05T20:00:26.893Z,14.54
2022-10-05T20:03:12.360Z,14.56
2022-10-05T20:05:39.696Z,14.57
2022-10-05T20:08:06.851Z,14.36
2022-10-05T20:10:33.695Z,14.28
2022-10-05T20:13:01.880Z,14.20
2022-10-05T20:15:49.354Z,14.19
2022-10-05T20:18:50.274Z,14.07
2022-10-05T20:21:41.488Z,14.27
2022-10-05T20:24:08.889Z,14.12
2022-10-05T20:27:01.378Z,14.07
2022-10-05T20:29:29.415Z,14.10
2022-10-05T20:31:56.517Z,14.35
2022-10-05T20:34:23.230Z,14.32
2022-10-05T20:36:50.905Z,14.27
2022-10-05T20:39:18.414Z,14.20
2022-10-05T20:41:45.543Z,14.18
2022-10-05T20:44:13.010Z,14.05
2022-10-05T20:46:41.697Z,13.96
2022-10-05T20:49:10.616Z,13.95
2022-10-05T20:51:40.617Z,14.03
2022-10-05T20:54:07.975Z,14.04
2022-10-05T20:56:34.679Z,13.92
2022-10-05T20:59:01.487Z,13.89
2022-10-05T21:01:28.934Z,13.88
2022-10-05T21:03:55.722Z,13.83
2022-10-05T21:06:22.339Z,13.74
2022-10-05T21:08:50.839Z,13.72
2022-10-05T21:11:17.332Z,13.64
2022-10-05T21:13:47.603Z,13.55
2022-10-05T21:16:17.368Z,13.65
2022-10-05T21:18:46.892Z,14.01
2022-10-05T21:21:14.917Z,14.12
2022-10-05T21:23:41.362Z,14.27
2022-10-05T21:26:09.016Z,14.27
2022-10-05T21:28:35.657Z,14.43
2022-10-05T21:31:02.519Z,14.36
2022-10-05T21:33:29.552Z,14.22
2022-10-05T21:35:56.192Z,14.11
2022-10-05T21:38:22.670Z,14.19
2022-10-05T21:40:49.238Z,14.19
2022-10-05T21:43:15.689Z,14.08
2022-10-05T21:45:42.792Z,13.99
2022-10-05T21:48:09.708Z,13.90
2022-10-05T21:50:37.589Z,13.74
2022-10-05T21:53:05.702Z,13.66
2022-10-05T21:55:32.979Z,13.62
2022-10-05T21:58:00.021Z,13.73
2022-10-05T22:00:27.300Z,13.70
2022-10-05T22:02:53.979Z,13.67
2022-10-05T22:05:20.491Z,13.57
2022-10-05T22:07:47.177Z,13.51
2022-10-05T22:10:13.877Z,13.49
2022-10-05T22:12:42.578Z,13.37
2022-10-05T22:15:09.769Z,13.42
2022-10-05T22:17:36.628Z,13.46
2022-10-05T22:20:03.759Z,13.91
2022-10-05T22:22:30.720Z,14.30
2022-10-05T22:24:57.145Z,14.19
2022-10-05T22:27:25.192Z,14.21
2022-10-05T22:29:51.828Z,14.40
2022-10-05T22:32:18.388Z,14.50
2022-10-05T22:34:44.977Z,14.49
2022-10-05T22:37:15.614Z,14.53
2022-10-05T22:39:42.805Z,15.00
2022-10-05T22:42:10.315Z,15.60
2022-10-05T22:44:36.862Z,15.96
2022-10-05T22:47:03.895Z,16.29
2022-10-05T22:49:30.314Z,16.71
2022-10-05T22:51:56.830Z,17.00
2022-10-05T22:54:27.443Z,17.00
2022-10-05T22:56:55.852Z,17.24
2022-10-05T22:59:22.693Z,17.66
2022-10-05T23:01:49.209Z,17.68
2022-10-05T23:04:15.717Z,17.80
2022-10-05T23:06:42.728Z,17.67
2022-10-05T23:09:09.183Z,17.68
2022-10-05T23:11:35.680Z,17.87
2022-10-05T23:14:02.140Z,17.82
2022-10-05T23:16:28.940Z,17.85
2022-10-05T23:18:56.066Z,18.06
2022-10-05T23:21:24.160Z,17.97
2022-10-05T23:23:53.205Z,17.97
2022-10-05T23:26:22.497Z,17.94
2022-10-05T23:28:50.107Z,17.83
2022-10-05T23:31:23.608Z,17.76
2022-10-05T23:33:50.161Z,17.74
2022-10-05T23:36:21.870Z,17.65
2022-10-05T23:38:48.443Z,17.56
2022-10-05T23:41:16.073Z,17.64
2022-10-05T23:43:42.967Z,17.75
2022-10-05T23:46:09.961Z,17.78
2022-10-05T23:48:39.449Z,17.85
2022-10-05T23:51:07.297Z,17.94
2022-10-05T23:53:34.032Z,17.96
2022-10-05T23:56:00.489Z,18.04
2022-10-05T23:58:27.449Z,17.98
